Quonset State Airport
KOQU : now visible

Airfield :











YOU CAN JOIN US ON...

 
LOGIN :

Register | Disclaimer

   EN    FR    IT 

 









Legend :    VFR   Marginal VFR   IFR   Intensive IFR   Very Intensive IFR
Visi :
Ceiling :
>= 8 km
>= 3000ft
5 to 8 km
1000 to 3000 ft
1500m to 5 km
500 to 1000 ft
800 to 1500m
200 to 500 ft
< 800m
< 200 ft
Symbols :   Thunderstorms  Fog  Heavy snow  Heavy precipitations  Wind > 20 kt






- Airport Elevation : 18 ft


KOQU - Quonset State

CURRENT METAR :
  • 131450Z AUTO 21006KT 4SM -RABR SCT036 OVC080 24/24 A3020

EXPIRED METARs :
  • 131350Z AUTO 23008KT 6SM -RABR SCT008 BKN040 OVC080 24/23 A3020
  • 131316Z AUTO 23012KT 4SM +RABR BKN003 OVC011 24/24 A3020
  • 131250Z AUTO 24007KT 10SM BKN007 OVC011 25/24 A3020

TAF N/A
KZBW FIR / North America



MET'MAP, your aeronautical weather chart ! - Copyright ORBIFLY December 2007 - Disclaimer

ORBIFLY MET'MAP TEAM :

Programming & Development : Alexandra Zaïnal
Original concept : Baudouin d'Aumeries
Technical & hardware support : Manuel Goepfert
Assistance : Marc-Olivier Méhu




SOURCES & CREDITS :

   NOAA       Earth
Advisory